sensor_id;sensor_type;location;lat;lon;timestamp;P1;durP1;ratioP1;P2;durP2;ratioP2
25155;SDS011;21913;52.456;13.634;2023-04-23T00:04:31;4.18;;;3.28;;
25155;SDS011;21913;52.456;13.634;2023-04-23T00:09:33;3.47;;;2.90;;
25155;SDS011;21913;52.456;13.634;2023-04-23T00:14:36;4.82;;;3.58;;
25155;SDS011;21913;52.456;13.634;2023-04-23T00:19:37;5.18;;;3.53;;
25155;SDS011;21913;52.456;13.634;2023-04-23T00:24:39;4.10;;;3.60;;
25155;SDS011;21913;52.456;13.634;2023-04-23T00:29:40;4.80;;;3.88;;
25155;SDS011;21913;52.456;13.634;2023-04-23T00:34:42;4.65;;;3.65;;
25155;SDS011;21913;52.456;13.634;2023-04-23T00:39:43;6.00;;;3.95;;
25155;SDS011;21913;52.456;13.634;2023-04-23T00:44:45;5.63;;;3.75;;
25155;SDS011;21913;52.456;13.634;2023-04-23T00:49:46;5.43;;;3.90;;
25155;SDS011;21913;52.456;13.634;2023-04-23T00:54:49;5.13;;;4.03;;
25155;SDS011;21913;52.456;13.634;2023-04-23T00:59:50;5.63;;;4.35;;
25155;SDS011;21913;52.456;13.634;2023-04-23T01:04:52;5.20;;;3.75;;
25155;SDS011;21913;52.456;13.634;2023-04-23T01:09:55;5.07;;;4.40;;
25155;SDS011;21913;52.456;13.634;2023-04-23T01:14:56;5.47;;;4.38;;
25155;SDS011;21913;52.456;13.634;2023-04-23T01:19:59;5.60;;;4.40;;
25155;SDS011;21913;52.456;13.634;2023-04-23T01:25:00;6.00;;;4.63;;
25155;SDS011;21913;52.456;13.634;2023-04-23T01:30:03;6.07;;;4.80;;
25155;SDS011;21913;52.456;13.634;2023-04-23T01:35:07;6.03;;;4.80;;
25155;SDS011;21913;52.456;13.634;2023-04-23T01:40:09;6.57;;;4.55;;
25155;SDS011;21913;52.456;13.634;2023-04-23T01:45:11;6.72;;;4.82;;
25155;SDS011;21913;52.456;13.634;2023-04-23T01:50:13;6.20;;;4.85;;
25155;SDS011;21913;52.456;13.634;2023-04-23T01:55:15;6.25;;;4.93;;
25155;SDS011;21913;52.456;13.634;2023-04-23T02:00:17;7.40;;;4.85;;
25155;SDS011;21913;52.456;13.634;2023-04-23T02:05:18;5.68;;;4.78;;
25155;SDS011;21913;52.456;13.634;2023-04-23T02:10:21;7.18;;;4.93;;
25155;SDS011;21913;52.456;13.634;2023-04-23T02:15:22;6.65;;;5.10;;
25155;SDS011;21913;52.456;13.634;2023-04-23T02:20:24;7.85;;;5.00;;
25155;SDS011;21913;52.456;13.634;2023-04-23T02:25:26;6.95;;;5.25;;
25155;SDS011;21913;52.456;13.634;2023-04-23T02:30:28;6.75;;;5.30;;
25155;SDS011;21913;52.456;13.634;2023-04-23T02:35:29;6.75;;;5.25;;
25155;SDS011;21913;52.456;13.634;2023-04-23T02:40:31;8.25;;;6.00;;
25155;SDS011;21913;52.456;13.634;2023-04-23T02:45:32;7.88;;;5.60;;
25155;SDS011;21913;52.456;13.634;2023-04-23T02:50:34;7.90;;;5.70;;
25155;SDS011;21913;52.456;13.634;2023-04-23T02:55:36;7.72;;;6.00;;
25155;SDS011;21913;52.456;13.634;2023-04-23T03:00:37;8.50;;;6.00;;
25155;SDS011;21913;52.456;13.634;2023-04-23T03:05:39;8.38;;;5.88;;
25155;SDS011;21913;52.456;13.634;2023-04-23T03:10:41;8.10;;;6.10;;
25155;SDS011;21913;52.456;13.634;2023-04-23T03:15:42;7.10;;;5.60;;
25155;SDS011;21913;52.456;13.634;2023-04-23T03:20:44;9.95;;;6.32;;
25155;SDS011;21913;52.456;13.634;2023-04-23T03:25:45;8.05;;;5.93;;
25155;SDS011;21913;52.456;13.634;2023-04-23T03:30:47;7.38;;;5.78;;
25155;SDS011;21913;52.456;13.634;2023-04-23T03:35:48;8.85;;;6.93;;
25155;SDS011;21913;52.456;13.634;2023-04-23T03:40:55;8.75;;;6.18;;
25155;SDS011;21913;52.456;13.634;2023-04-23T03:45:58;8.60;;;6.07;;
25155;SDS011;21913;52.456;13.634;2023-04-23T03:51:01;8.30;;;6.07;;
25155;SDS011;21913;52.456;13.634;2023-04-23T03:56:15;8.63;;;6.80;;
25155;SDS011;21913;52.456;13.634;2023-04-23T04:01:25;10.13;;;6.63;;
25155;SDS011;21913;52.456;13.634;2023-04-23T04:06:27;8.40;;;6.75;;
25155;SDS011;21913;52.456;13.634;2023-04-23T04:11:29;10.27;;;7.03;;
25155;SDS011;21913;52.456;13.634;2023-04-23T04:16:30;10.13;;;7.00;;
25155;SDS011;21913;52.456;13.634;2023-04-23T04:21:32;9.70;;;6.75;;
25155;SDS011;21913;52.456;13.634;2023-04-23T04:26:33;9.40;;;7.13;;
25155;SDS011;21913;52.456;13.634;2023-04-23T04:31:35;9.63;;;7.30;;
25155;SDS011;21913;52.456;13.634;2023-04-23T04:36:36;10.23;;;7.40;;
25155;SDS011;21913;52.456;13.634;2023-04-23T04:41:38;11.05;;;7.97;;
25155;SDS011;21913;52.456;13.634;2023-04-23T04:46:39;10.07;;;7.75;;
25155;SDS011;21913;52.456;13.634;2023-04-23T04:51:41;11.30;;;7.82;;
25155;SDS011;21913;52.456;13.634;2023-04-23T04:56:42;10.05;;;7.63;;
25155;SDS011;21913;52.456;13.634;2023-04-23T05:01:44;13.13;;;8.05;;
25155;SDS011;21913;52.456;13.634;2023-04-23T05:06:45;12.80;;;8.10;;
25155;SDS011;21913;52.456;13.634;2023-04-23T05:11:47;10.48;;;7.60;;
25155;SDS011;21913;52.456;13.634;2023-04-23T05:16:48;11.95;;;8.15;;
25155;SDS011;21913;52.456;13.634;2023-04-23T05:21:50;12.85;;;8.73;;
25155;SDS011;21913;52.456;13.634;2023-04-23T05:26:51;12.65;;;8.30;;
25155;SDS011;21913;52.456;13.634;2023-04-23T05:31:53;11.27;;;8.43;;
25155;SDS011;21913;52.456;13.634;2023-04-23T05:36:54;10.73;;;7.93;;
25155;SDS011;21913;52.456;13.634;2023-04-23T05:41:56;11.65;;;8.63;;
25155;SDS011;21913;52.456;13.634;2023-04-23T05:46:58;10.65;;;8.20;;
25155;SDS011;21913;52.456;13.634;2023-04-23T05:51:59;11.55;;;8.25;;
25155;SDS011;21913;52.456;13.634;2023-04-23T05:57:01;11.63;;;8.63;;
25155;SDS011;21913;52.456;13.634;2023-04-23T06:02:03;11.98;;;8.63;;
25155;SDS011;21913;52.456;13.634;2023-04-23T06:07:05;11.40;;;8.27;;
25155;SDS011;21913;52.456;13.634;2023-04-23T06:12:06;11.07;;;8.15;;
25155;SDS011;21913;52.456;13.634;2023-04-23T06:17:08;12.13;;;8.73;;
25155;SDS011;21913;52.456;13.634;2023-04-23T06:22:09;11.40;;;7.93;;
25155;SDS011;21913;52.456;13.634;2023-04-23T06:27:11;12.23;;;8.98;;
25155;SDS011;21913;52.456;13.634;2023-04-23T06:32:18;11.85;;;8.77;;
25155;SDS011;21913;52.456;13.634;2023-04-23T06:37:20;13.15;;;9.15;;
25155;SDS011;21913;52.456;13.634;2023-04-23T06:42:22;12.35;;;8.95;;
25155;SDS011;21913;52.456;13.634;2023-04-23T06:47:39;11.40;;;8.27;;
25155;SDS011;21913;52.456;13.634;2023-04-23T06:52:41;12.40;;;8.48;;
25155;SDS011;21913;52.456;13.634;2023-04-23T06:57:43;11.35;;;8.43;;
25155;SDS011;21913;52.456;13.634;2023-04-23T07:02:44;10.68;;;8.60;;
25155;SDS011;21913;52.456;13.634;2023-04-23T07:07:46;11.52;;;8.60;;
25155;SDS011;21913;52.456;13.634;2023-04-23T07:12:48;9.77;;;7.50;;
25155;SDS011;21913;52.456;13.634;2023-04-23T07:17:49;11.38;;;8.10;;
25155;SDS011;21913;52.456;13.634;2023-04-23T07:22:51;11.23;;;8.00;;
25155;SDS011;21913;52.456;13.634;2023-04-23T07:27:52;11.07;;;7.80;;
25155;SDS011;21913;52.456;13.634;2023-04-23T07:32:54;10.77;;;7.97;;
25155;SDS011;21913;52.456;13.634;2023-04-23T07:37:55;10.02;;;7.78;;
25155;SDS011;21913;52.456;13.634;2023-04-23T07:42:57;8.32;;;6.90;;
25155;SDS011;21913;52.456;13.634;2023-04-23T07:47:58;10.00;;;7.20;;
25155;SDS011;21913;52.456;13.634;2023-04-23T07:53:00;9.25;;;7.22;;
25155;SDS011;21913;52.456;13.634;2023-04-23T07:58:01;10.32;;;7.13;;
25155;SDS011;21913;52.456;13.634;2023-04-23T08:03:03;12.13;;;9.02;;
25155;SDS011;21913;52.456;13.634;2023-04-23T08:08:05;15.15;;;9.13;;
25155;SDS011;21913;52.456;13.634;2023-04-23T08:13:11;14.65;;;9.75;;
25155;SDS011;21913;52.456;13.634;2023-04-23T08:18:12;12.15;;;9.20;;
25155;SDS011;21913;52.456;13.634;2023-04-23T08:23:14;13.27;;;9.77;;
25155;SDS011;21913;52.456;13.634;2023-04-23T08:28:17;13.23;;;9.52;;
25155;SDS011;21913;52.456;13.634;2023-04-23T08:33:19;14.43;;;9.68;;
25155;SDS011;21913;52.456;13.634;2023-04-23T08:38:20;11.20;;;9.25;;
25155;SDS011;21913;52.456;13.634;2023-04-23T08:43:25;13.23;;;9.40;;
25155;SDS011;21913;52.456;13.634;2023-04-23T08:48:51;13.35;;;9.27;;
25155;SDS011;21913;52.456;13.634;2023-04-23T08:53:55;11.85;;;8.90;;
25155;SDS011;21913;52.456;13.634;2023-04-23T08:58:58;11.32;;;8.95;;
25155;SDS011;21913;52.456;13.634;2023-04-23T09:04:00;10.57;;;8.07;;
25155;SDS011;21913;52.456;13.634;2023-04-23T09:09:02;10.82;;;8.07;;
25155;SDS011;21913;52.456;13.634;2023-04-23T09:14:06;10.10;;;8.10;;
25155;SDS011;21913;52.456;13.634;2023-04-23T09:19:09;10.88;;;7.65;;
25155;SDS011;21913;52.456;13.634;2023-04-23T09:24:11;12.07;;;7.90;;
25155;SDS011;21913;52.456;13.634;2023-04-23T09:29:22;10.93;;;7.60;;
25155;SDS011;21913;52.456;13.634;2023-04-23T09:34:24;9.70;;;7.20;;
25155;SDS011;21913;52.456;13.634;2023-04-23T09:39:26;9.32;;;7.13;;
25155;SDS011;21913;52.456;13.634;2023-04-23T09:44:29;8.88;;;6.88;;
25155;SDS011;21913;52.456;13.634;2023-04-23T09:49:32;8.63;;;6.50;;
25155;SDS011;21913;52.456;13.634;2023-04-23T09:54:33;8.98;;;6.80;;
25155;SDS011;21913;52.456;13.634;2023-04-23T09:59:35;9.63;;;6.78;;
25155;SDS011;21913;52.456;13.634;2023-04-23T10:04:49;10.48;;;6.45;;
25155;SDS011;21913;52.456;13.634;2023-04-23T10:09:51;8.02;;;6.30;;
25155;SDS011;21913;52.456;13.634;2023-04-23T10:14:52;8.63;;;6.50;;
25155;SDS011;21913;52.456;13.634;2023-04-23T10:19:54;9.75;;;6.47;;
25155;SDS011;21913;52.456;13.634;2023-04-23T10:24:56;13.07;;;6.80;;
25155;SDS011;21913;52.456;13.634;2023-04-23T10:30:00;12.48;;;6.32;;
25155;SDS011;21913;52.456;13.634;2023-04-23T10:35:03;10.45;;;5.32;;
25155;SDS011;21913;52.456;13.634;2023-04-23T10:40:10;11.00;;;5.25;;
25155;SDS011;21913;52.456;13.634;2023-04-23T10:45:14;8.38;;;4.28;;
25155;SDS011;21913;52.456;13.634;2023-04-23T10:50:24;7.20;;;3.37;;
25155;SDS011;21913;52.456;13.634;2023-04-23T10:55:30;5.10;;;2.85;;
25155;SDS011;21913;52.456;13.634;2023-04-23T11:05:43;4.65;;;2.53;;
25155;SDS011;21913;52.456;13.634;2023-04-23T11:10:50;6.32;;;2.90;;
25155;SDS011;21913;52.456;13.634;2023-04-23T11:21:16;7.43;;;2.30;;
25155;SDS011;21913;52.456;13.634;2023-04-23T11:26:17;7.13;;;2.53;;
25155;SDS011;21913;52.456;13.634;2023-04-23T11:31:19;5.55;;;2.20;;
25155;SDS011;21913;52.456;13.634;2023-04-23T11:36:21;4.32;;;2.03;;
25155;SDS011;21913;52.456;13.634;2023-04-23T11:41:24;9.73;;;2.08;;
25155;SDS011;21913;52.456;13.634;2023-04-23T11:46:25;5.45;;;1.90;;
25155;SDS011;21913;52.456;13.634;2023-04-23T11:51:27;5.03;;;2.10;;
25155;SDS011;21913;52.456;13.634;2023-04-23T11:56:29;3.78;;;1.70;;
25155;SDS011;21913;52.456;13.634;2023-04-23T12:06:50;4.90;;;2.00;;
25155;SDS011;21913;52.456;13.634;2023-04-23T12:11:52;5.10;;;2.28;;
25155;SDS011;21913;52.456;13.634;2023-04-23T12:16:54;3.50;;;2.08;;
25155;SDS011;21913;52.456;13.634;2023-04-23T12:21:56;4.95;;;1.98;;
25155;SDS011;21913;52.456;13.634;2023-04-23T12:26:59;4.07;;;2.08;;
25155;SDS011;21913;52.456;13.634;2023-04-23T12:32:01;3.05;;;1.92;;
25155;SDS011;21913;52.456;13.634;2023-04-23T12:37:05;4.32;;;2.17;;
25155;SDS011;21913;52.456;13.634;2023-04-23T12:42:07;2.80;;;1.90;;
25155;SDS011;21913;52.456;13.634;2023-04-23T12:47:09;3.78;;;2.17;;
25155;SDS011;21913;52.456;13.634;2023-04-23T12:52:11;3.30;;;1.88;;
25155;SDS011;21913;52.456;13.634;2023-04-23T12:57:13;4.18;;;2.40;;
25155;SDS011;21913;52.456;13.634;2023-04-23T13:02:15;3.30;;;2.20;;
25155;SDS011;21913;52.456;13.634;2023-04-23T13:07:16;2.72;;;1.73;;
25155;SDS011;21913;52.456;13.634;2023-04-23T13:12:18;3.42;;;2.00;;
25155;SDS011;21913;52.456;13.634;2023-04-23T13:17:19;3.55;;;1.98;;
25155;SDS011;21913;52.456;13.634;2023-04-23T13:22:21;3.67;;;2.00;;
25155;SDS011;21913;52.456;13.634;2023-04-23T13:27:23;3.72;;;2.10;;
25155;SDS011;21913;52.456;13.634;2023-04-23T13:32:25;2.60;;;1.77;;
25155;SDS011;21913;52.456;13.634;2023-04-23T13:37:27;4.45;;;1.95;;
25155;SDS011;21913;52.456;13.634;2023-04-23T13:42:29;2.72;;;1.70;;
25155;SDS011;21913;52.456;13.634;2023-04-23T13:47:30;3.17;;;1.88;;
25155;SDS011;21913;52.456;13.634;2023-04-23T13:52:32;2.28;;;1.73;;
25155;SDS011;21913;52.456;13.634;2023-04-23T13:57:34;2.53;;;1.80;;
25155;SDS011;21913;52.456;13.634;2023-04-23T14:02:36;3.13;;;1.85;;
25155;SDS011;21913;52.456;13.634;2023-04-23T14:07:37;2.30;;;1.63;;
25155;SDS011;21913;52.456;13.634;2023-04-23T14:12:39;4.30;;;1.80;;
25155;SDS011;21913;52.456;13.634;2023-04-23T14:17:40;3.30;;;1.73;;
25155;SDS011;21913;52.456;13.634;2023-04-23T14:22:42;2.67;;;1.65;;
25155;SDS011;21913;52.456;13.634;2023-04-23T14:27:50;3.28;;;1.70;;
25155;SDS011;21913;52.456;13.634;2023-04-23T14:32:51;3.17;;;1.70;;
25155;SDS011;21913;52.456;13.634;2023-04-23T14:37:53;2.08;;;1.52;;
25155;SDS011;21913;52.456;13.634;2023-04-23T14:42:54;2.47;;;1.70;;
25155;SDS011;21913;52.456;13.634;2023-04-23T14:47:57;2.00;;;1.50;;
25155;SDS011;21913;52.456;13.634;2023-04-23T14:52:59;2.20;;;1.65;;
25155;SDS011;21913;52.456;13.634;2023-04-23T14:58:00;3.47;;;1.90;;
25155;SDS011;21913;52.456;13.634;2023-04-23T15:03:02;2.15;;;1.60;;
25155;SDS011;21913;52.456;13.634;2023-04-23T15:08:04;2.63;;;1.60;;
25155;SDS011;21913;52.456;13.634;2023-04-23T15:18:13;2.80;;;1.90;;
25155;SDS011;21913;52.456;13.634;2023-04-23T15:23:15;2.95;;;1.67;;
25155;SDS011;21913;52.456;13.634;2023-04-23T15:28:16;2.85;;;1.75;;
25155;SDS011;21913;52.456;13.634;2023-04-23T15:33:18;2.40;;;1.35;;
25155;SDS011;21913;52.456;13.634;2023-04-23T15:38:19;4.35;;;1.67;;
25155;SDS011;21913;52.456;13.634;2023-04-23T15:43:21;3.08;;;1.70;;
25155;SDS011;21913;52.456;13.634;2023-04-23T15:48:23;4.10;;;1.65;;
25155;SDS011;21913;52.456;13.634;2023-04-23T15:53:25;2.78;;;1.70;;
25155;SDS011;21913;52.456;13.634;2023-04-23T15:58:27;2.95;;;1.70;;
25155;SDS011;21913;52.456;13.634;2023-04-23T16:03:29;3.03;;;1.40;;
25155;SDS011;21913;52.456;13.634;2023-04-23T16:08:30;3.45;;;1.55;;
25155;SDS011;21913;52.456;13.634;2023-04-23T16:13:33;4.20;;;1.67;;
25155;SDS011;21913;52.456;13.634;2023-04-23T16:18:35;7.45;;;1.70;;
25155;SDS011;21913;52.456;13.634;2023-04-23T16:23:37;6.28;;;2.00;;
25155;SDS011;21913;52.456;13.634;2023-04-23T16:28:38;4.82;;;2.30;;
25155;SDS011;21913;52.456;13.634;2023-04-23T16:33:40;14.43;;;2.80;;
25155;SDS011;21913;52.456;13.634;2023-04-23T16:38:41;4.18;;;2.20;;
25155;SDS011;21913;52.456;13.634;2023-04-23T16:43:43;6.03;;;2.20;;
25155;SDS011;21913;52.456;13.634;2023-04-23T16:48:44;5.95;;;2.75;;
25155;SDS011;21913;52.456;13.634;2023-04-23T16:53:46;5.65;;;2.58;;
25155;SDS011;21913;52.456;13.634;2023-04-23T16:58:47;4.30;;;2.58;;
25155;SDS011;21913;52.456;13.634;2023-04-23T17:03:49;5.45;;;2.60;;
25155;SDS011;21913;52.456;13.634;2023-04-23T17:08:51;3.33;;;2.28;;
25155;SDS011;21913;52.456;13.634;2023-04-23T17:13:53;3.83;;;2.20;;
25155;SDS011;21913;52.456;13.634;2023-04-23T17:18:55;4.85;;;2.58;;
25155;SDS011;21913;52.456;13.634;2023-04-23T17:23:56;6.35;;;2.55;;
25155;SDS011;21913;52.456;13.634;2023-04-23T17:28:58;5.65;;;2.28;;
25155;SDS011;21913;52.456;13.634;2023-04-23T17:34:00;4.97;;;2.53;;
25155;SDS011;21913;52.456;13.634;2023-04-23T17:39:01;4.47;;;2.50;;
25155;SDS011;21913;52.456;13.634;2023-04-23T17:44:03;4.50;;;2.33;;
25155;SDS011;21913;52.456;13.634;2023-04-23T17:49:04;5.65;;;2.53;;
25155;SDS011;21913;52.456;13.634;2023-04-23T17:54:06;4.28;;;2.40;;
25155;SDS011;21913;52.456;13.634;2023-04-23T17:59:07;3.80;;;2.42;;
25155;SDS011;21913;52.456;13.634;2023-04-23T18:04:09;3.70;;;2.42;;
25155;SDS011;21913;52.456;13.634;2023-04-23T18:09:10;3.95;;;2.50;;
25155;SDS011;21913;52.456;13.634;2023-04-23T18:14:12;4.20;;;2.38;;
25155;SDS011;21913;52.456;13.634;2023-04-23T18:19:13;3.38;;;2.20;;
25155;SDS011;21913;52.456;13.634;2023-04-23T18:24:15;4.00;;;2.33;;
25155;SDS011;21913;52.456;13.634;2023-04-23T18:29:16;6.20;;;2.47;;
25155;SDS011;21913;52.456;13.634;2023-04-23T18:34:18;5.75;;;2.42;;
25155;SDS011;21913;52.456;13.634;2023-04-23T18:39:22;5.05;;;1.98;;
25155;SDS011;21913;52.456;13.634;2023-04-23T18:44:24;3.72;;;2.03;;
25155;SDS011;21913;52.456;13.634;2023-04-23T18:54:30;3.75;;;2.13;;
25155;SDS011;21913;52.456;13.634;2023-04-23T18:59:31;2.85;;;2.20;;
25155;SDS011;21913;52.456;13.634;2023-04-23T19:04:33;3.70;;;2.15;;
25155;SDS011;21913;52.456;13.634;2023-04-23T19:09:34;2.72;;;2.08;;
25155;SDS011;21913;52.456;13.634;2023-04-23T19:14:36;3.60;;;2.03;;
25155;SDS011;21913;52.456;13.634;2023-04-23T19:19:37;4.32;;;2.20;;
25155;SDS011;21913;52.456;13.634;2023-04-23T19:24:39;2.40;;;1.90;;
25155;SDS011;21913;52.456;13.634;2023-04-23T19:29:41;3.92;;;2.05;;
25155;SDS011;21913;52.456;13.634;2023-04-23T19:34:42;3.05;;;2.05;;
25155;SDS011;21913;52.456;13.634;2023-04-23T19:39:44;2.22;;;1.83;;
25155;SDS011;21913;52.456;13.634;2023-04-23T19:44:45;4.47;;;2.05;;
25155;SDS011;21913;52.456;13.634;2023-04-23T19:49:46;2.35;;;1.90;;
25155;SDS011;21913;52.456;13.634;2023-04-23T19:54:48;6.15;;;2.10;;
25155;SDS011;21913;52.456;13.634;2023-04-23T19:59:50;2.20;;;1.73;;
25155;SDS011;21913;52.456;13.634;2023-04-23T20:04:51;2.55;;;1.90;;
25155;SDS011;21913;52.456;13.634;2023-04-23T20:09:53;2.55;;;1.90;;
25155;SDS011;21913;52.456;13.634;2023-04-23T20:14:54;2.72;;;1.77;;
25155;SDS011;21913;52.456;13.634;2023-04-23T20:19:56;3.72;;;1.80;;
25155;SDS011;21913;52.456;13.634;2023-04-23T20:24:57;2.70;;;1.67;;
25155;SDS011;21913;52.456;13.634;2023-04-23T20:29:59;3.35;;;2.00;;
25155;SDS011;21913;52.456;13.634;2023-04-23T20:35:00;2.45;;;1.52;;
25155;SDS011;21913;52.456;13.634;2023-04-23T20:40:02;2.38;;;1.80;;
25155;SDS011;21913;52.456;13.634;2023-04-23T20:45:04;3.28;;;1.60;;
25155;SDS011;21913;52.456;13.634;2023-04-23T20:50:06;2.63;;;1.73;;
25155;SDS011;21913;52.456;13.634;2023-04-23T20:55:08;2.60;;;1.80;;
25155;SDS011;21913;52.456;13.634;2023-04-23T21:00:10;2.40;;;1.73;;
25155;SDS011;21913;52.456;13.634;2023-04-23T21:05:11;2.17;;;1.45;;
25155;SDS011;21913;52.456;13.634;2023-04-23T21:10:13;2.15;;;1.55;;
25155;SDS011;21913;52.456;13.634;2023-04-23T21:15:15;2.13;;;1.60;;
25155;SDS011;21913;52.456;13.634;2023-04-23T21:20:16;1.92;;;1.60;;
25155;SDS011;21913;52.456;13.634;2023-04-23T21:25:18;3.17;;;1.70;;
25155;SDS011;21913;52.456;13.634;2023-04-23T21:35:36;2.40;;;1.58;;
25155;SDS011;21913;52.456;13.634;2023-04-23T21:40:38;2.13;;;1.40;;
25155;SDS011;21913;52.456;13.634;2023-04-23T21:45:40;2.00;;;1.58;;
25155;SDS011;21913;52.456;13.634;2023-04-23T21:50:42;1.52;;;1.30;;
25155;SDS011;21913;52.456;13.634;2023-04-23T21:55:43;2.08;;;1.40;;
25155;SDS011;21913;52.456;13.634;2023-04-23T22:00:45;2.30;;;1.50;;
25155;SDS011;21913;52.456;13.634;2023-04-23T22:05:46;2.28;;;1.58;;
25155;SDS011;21913;52.456;13.634;2023-04-23T22:10:48;2.15;;;1.50;;
25155;SDS011;21913;52.456;13.634;2023-04-23T22:15:49;2.70;;;1.60;;
25155;SDS011;21913;52.456;13.634;2023-04-23T22:20:51;2.10;;;1.58;;
25155;SDS011;21913;52.456;13.634;2023-04-23T22:25:52;1.92;;;1.55;;
25155;SDS011;21913;52.456;13.634;2023-04-23T22:30:55;3.22;;;1.60;;
25155;SDS011;21913;52.456;13.634;2023-04-23T22:35:56;2.08;;;1.50;;
25155;SDS011;21913;52.456;13.634;2023-04-23T22:40:58;2.33;;;1.50;;
25155;SDS011;21913;52.456;13.634;2023-04-23T22:45:59;1.92;;;1.48;;
25155;SDS011;21913;52.456;13.634;2023-04-23T22:51:01;2.17;;;1.35;;
25155;SDS011;21913;52.456;13.634;2023-04-23T22:56:04;2.03;;;1.30;;
25155;SDS011;21913;52.456;13.634;2023-04-23T23:01:05;2.35;;;1.50;;
25155;SDS011;21913;52.456;13.634;2023-04-23T23:06:07;2.03;;;1.30;;
25155;SDS011;21913;52.456;13.634;2023-04-23T23:11:08;2.03;;;1.40;;
25155;SDS011;21913;52.456;13.634;2023-04-23T23:16:10;2.85;;;1.48;;
25155;SDS011;21913;52.456;13.634;2023-04-23T23:21:11;1.95;;;1.33;;
25155;SDS011;21913;52.456;13.634;2023-04-23T23:26:13;1.85;;;1.50;;
25155;SDS011;21913;52.456;13.634;2023-04-23T23:31:15;1.88;;;1.30;;
25155;SDS011;21913;52.456;13.634;2023-04-23T23:36:16;1.85;;;1.40;;
25155;SDS011;21913;52.456;13.634;2023-04-23T23:41:18;1.67;;;1.30;;
25155;SDS011;21913;52.456;13.634;2023-04-23T23:46:19;1.17;;;1.00;;
25155;SDS011;21913;52.456;13.634;2023-04-23T23:51:21;1.70;;;1.27;;
25155;SDS011;21913;52.456;13.634;2023-04-23T23:56:22;1.52;;;1.20;;
